Time;durP1;ratioP1;P1;durP2;ratioP2;P2;SDS_P1;SDS_P2;PMS_P1;PMS_P2;Temp;Humidity;BMP_temperature;BMP_pressure;BME280_temperature;BME280_humidity;BME280_pressure;Samples;Min_cycle;Max_cycle;Signal;HPM_P1;HPM_P2
2021/06/02 00:01:32;;;;;;;5.45;4.70;;;;;;;;;;6289766;28;20031;-85
2021/06/02 00:04:34;;;;;;;7.47;3.72;;;14.60;92.30;;;;;;6287010;28;20063;-85
2021/06/02 00:07:35;;;;;;;5.03;3.92;;;;;;;;;;6274982;28;20435;-87
2021/06/02 00:10:36;;;;;;;4.72;3.83;;;14.30;72.00;;;;;;6282282;28;20076;-86
2021/06/02 00:13:36;;;;;;;5.47;3.72;;;14.00;89.80;;;;;;6276337;28;20033;-85
2021/06/02 00:16:37;;;;;;;4.00;3.60;;;;;;;;;;6279348;28;20043;-87
2021/06/02 00:19:38;;;;;;;6.05;3.65;;;14.40;89.90;;;;;;6295430;28;20078;-87
2021/06/02 00:22:39;;;;;;;6.88;4.82;;;14.20;74.70;;;;;;6265335;28;20044;-88
2021/06/02 00:25:40;;;;;;;6.88;4.72;;;;;;;;;;6278388;28;20147;-86
2021/06/02 00:28:41;;;;;;;6.20;4.40;;;;;;;;;;6287112;28;20466;-87
2021/06/02 00:31:45;;;;;;;6.45;4.32;;;14.30;70.70;;;;;;6271913;28;20058;-88
2021/06/02 00:34:49;;;;;;;5.18;4.10;;;14.20;74.50;;;;;;6282675;28;20028;-89
2021/06/02 00:37:49;;;;;;;4.63;4.10;;;14.20;72.20;;;;;;6256076;28;20035;-87
2021/06/02 00:40:50;;;;;;;7.80;4.35;;;14.90;75.50;;;;;;6258257;28;20056;-87
2021/06/02 00:43:51;;;;;;;4.38;3.92;;;14.00;76.40;;;;;;6266714;28;20506;-87
2021/06/02 00:46:52;;;;;;;6.13;4.50;;;14.10;91.20;;;;;;6259085;28;20024;-89
2021/06/02 00:49:52;;;;;;;5.97;4.22;;;13.80;78.00;;;;;;6278756;28;20056;-88
2021/06/02 00:52:54;;;;;;;5.95;4.60;;;13.70;78.30;;;;;;6254260;28;20360;-87
2021/06/02 00:56:03;;;;;;;5.40;4.47;;;13.70;78.10;;;;;;6275960;28;20036;-87
2021/06/02 00:59:04;;;;;;;5.88;4.53;;;13.70;91.20;;;;;;6257998;28;20435;-89
2021/06/02 01:02:06;;;;;;;5.40;4.45;;;13.70;76.80;;;;;;6259810;28;20024;-88
2021/06/02 01:05:07;;;;;;;5.75;4.15;;;13.70;77.90;;;;;;6278355;28;20024;-86
2021/06/02 01:08:08;;;;;;;5.38;3.95;;;13.50;91.80;;;;;;6278169;28;20036;-89
2021/06/02 01:11:09;;;;;;;5.68;4.30;;;13.50;79.20;;;;;;6289888;28;20032;-88
2021/06/02 01:14:10;;;;;;;4.68;4.00;;;13.70;79.70;;;;;;6279134;28;20056;-87
2021/06/02 01:17:15;;;;;;;5.15;3.67;;;13.40;80.10;;;;;;6255140;28;20046;-87
2021/06/02 01:20:16;;;;;;;4.80;4.30;;;13.30;80.20;;;;;;6273919;28;20499;-89
2021/06/02 01:23:18;;;;;;;6.25;4.32;;;13.20;81.00;;;;;;6278193;28;20040;-86
2021/06/02 01:26:18;;;;;;;5.90;4.57;;;12.90;92.50;;;;;;6262999;28;20046;-88
2021/06/02 01:29:19;;;;;;;7.82;4.65;;;13.60;84.70;;;;;;6259978;28;20036;-88
2021/06/02 01:32:47;;;;;;;4.85;4.40;;;13.10;85.50;;;;;;6292637;28;20588;-87
2021/06/02 01:35:54;;;;;;;8.05;4.72;;;12.80;94.50;;;;;;6307548;28;20532;-86
2021/06/02 01:39:07;;;;;;;7.70;4.47;;;12.50;97.20;;;;;;6304870;28;20052;-88
2021/06/02 01:42:29;;;;;;;4.93;4.40;;;12.40;96.30;;;;;;6296622;28;20086;-86
2021/06/02 01:45:44;;;;;;;7.07;4.55;;;12.70;96.60;;;;;;6296748;28;20035;-86
2021/06/02 01:49:06;;;;;;;6.70;4.70;;;12.60;97.50;;;;;;6269491;28;20455;-87
2021/06/02 01:52:26;;;;;;;5.13;4.63;;;12.30;96.40;;;;;;6268060;28;20029;-88
2021/06/02 01:55:39;;;;;;;5.55;4.93;;;12.30;91.20;;;;;;6305048;28;20324;-87
2021/06/02 01:59:18;;;;;;;5.00;4.50;;;12.10;97.50;;;;;;6286072;28;20063;-88
2021/06/02 02:02:36;;;;;;;5.13;4.47;;;11.90;97.50;;;;;;6319526;28;20038;-88
2021/06/02 02:06:08;;;;;;;5.75;4.18;;;11.90;99.40;;;;;;6309805;28;20107;-89
2021/06/02 02:09:13;;;;;;;5.50;3.80;;;12.00;90.80;;;;;;6305448;28;20051;-90
2021/06/02 02:12:26;;;;;;;6.38;4.45;;;12.10;92.20;;;;;;6275306;28;20135;-89
2021/06/02 02:15:32;;;;;;;4.35;3.92;;;12.10;93.00;;;;;;6303607;28;20029;-89
2021/06/02 02:18:40;;;;;;;5.43;4.90;;;12.40;97.40;;;;;;6291981;28;20024;-89
2021/06/02 02:21:52;;;;;;;5.03;4.53;;;12.20;91.60;;;;;;6283833;28;20040;-90
2021/06/02 02:25:04;;;;;;;7.70;5.50;;;12.40;97.10;;;;;;6316533;28;20036;-90
2021/06/02 02:28:19;;;;;;;6.07;4.78;;;12.20;99.90;;;;;;6271561;28;20040;-88
2021/06/02 02:31:35;;;;;;;6.07;5.10;;;12.30;99.90;;;;;;6304854;28;20497;-87
2021/06/02 02:34:53;;;;;;;8.30;5.43;;;11.90;94.50;;;;;;6306987;28;20588;-88
2021/06/02 02:38:02;;;;;;;7.28;5.03;;;11.70;99.90;;;;;;6309032;28;20035;-90
2021/06/02 02:41:37;;;;;;;7.07;4.65;;;12.00;92.40;;;;;;6309123;28;20055;-88
2021/06/02 02:45:04;;;;;;;6.25;4.93;;;11.90;99.90;;;;;;6309229;28;20040;-88
2021/06/02 02:48:36;;;;;;;8.38;4.63;;;12.10;99.90;;;;;;6276392;28;20445;-88
2021/06/02 02:51:55;;;;;;;6.60;5.07;;;12.00;99.90;;;;;;6268623;28;20028;-90
2021/06/02 02:55:02;;;;;;;9.35;4.75;;;12.10;92.30;;;;;;6297677;28;20027;-88
2021/06/02 02:58:32;;;;;;;5.13;4.63;;;11.90;99.90;;;;;;6277076;28;20027;-87
2021/06/02 03:01:47;;;;;;;5.35;4.60;;;12.00;99.90;;;;;;6264274;28;20046;-89
2021/06/02 03:04:53;;;;;;;7.00;5.22;;;12.00;99.90;;;;;;6281490;28;20044;-89
2021/06/02 03:08:11;;;;;;;6.25;4.57;;;11.80;99.90;;;;;;6276776;28;20027;-89
2021/06/02 03:11:44;;;;;;;6.55;4.90;;;12.00;95.30;;;;;;6286644;28;20078;-88
2021/06/02 03:15:18;;;;;;;6.63;4.65;;;12.10;99.90;;;;;;6286916;28;20066;-88
2021/06/02 03:18:22;;;;;;;5.22;4.35;;;12.00;93.00;;;;;;6272900;28;20059;-90
2021/06/02 03:21:28;;;;;;;5.88;4.53;;;12.20;99.90;;;;;;6297788;28;20046;-88
2021/06/02 03:24:29;;;;;;;6.45;4.65;;;12.20;92.70;;;;;;6305757;28;20068;-89
2021/06/02 03:27:50;;;;;;;5.65;4.35;;;11.80;95.20;;;;;;6312441;28;20024;-88
2021/06/02 03:31:06;;;;;;;7.18;5.07;;;11.80;99.90;;;;;;6303370;28;20033;-88
2021/06/02 03:34:26;;;;;;;7.43;4.82;;;11.70;93.70;;;;;;6271281;28;20042;-90
2021/06/02 03:37:42;;;;;;;6.07;4.75;;;11.80;95.80;;;;;;6286250;28;20032;-86
2021/06/02 03:41:04;;;;;;;5.57;4.07;;;11.50;99.90;;;;;;6304054;28;20054;-89
2021/06/02 03:44:43;;;;;;;6.82;4.78;;;11.50;99.90;;;;;;6311905;28;20044;-88
2021/06/02 03:47:44;;;;;;;8.15;4.75;;;;;;;;;;6268214;28;20082;-90
2021/06/02 03:51:10;;;;;;;7.07;4.88;;;11.40;99.90;;;;;;6310820;28;20478;-88
2021/06/02 03:54:12;;;;;;;8.00;5.30;;;11.10;99.90;;;;;;6282031;28;20043;-88
2021/06/02 03:57:34;;;;;;;6.60;5.03;;;11.00;98.40;;;;;;6278925;28;20479;-89
2021/06/02 04:00:43;;;;;;;6.15;5.05;;;11.00;99.90;;;;;;6292353;28;20028;-88
2021/06/02 04:03:56;;;;;;;6.78;4.68;;;11.00;97.90;;;;;;6276575;28;20058;-90
2021/06/02 04:07:04;;;;;;;6.00;5.25;;;11.10;99.90;;;;;;6288067;28;20177;-89
2021/06/02 04:10:26;;;;;;;6.10;5.03;;;11.50;98.70;;;;;;6271616;28;20038;-90
2021/06/02 04:13:54;;;;;;;6.78;4.55;;;12.00;99.90;;;;;;6281367;28;20028;-88
2021/06/02 04:16:54;;;;;;;6.25;4.45;;;12.40;99.90;;;;;;6300870;28;20035;-89
2021/06/02 04:19:55;;;;;;;5.22;4.72;;;12.90;99.90;;;;;;6289599;28;20035;-87
2021/06/02 04:22:56;;;;;;;5.00;4.50;;;;;;;;;;6258000;28;20046;-89
2021/06/02 04:25:57;;;;;;;6.78;4.70;;;13.60;99.90;;;;;;6284858;28;20028;-89
2021/06/02 04:28:59;;;;;;;7.93;4.88;;;13.70;93.50;;;;;;6263239;28;20089;-88
2021/06/02 04:32:04;;;;;;;;;;;14.10;94.00;;;;;;6268166;28;20024;-91
2021/06/02 04:35:11;;;;;;;6.20;4.72;;;14.20;92.80;;;;;;6286961;28;19908;-91
2021/06/02 04:38:11;;;;;;;5.13;4.53;;;14.40;90.50;;;;;;6276150;28;20130;-89
2021/06/02 04:41:13;;;;;;;6.00;5.13;;;14.60;91.80;;;;;;6270597;28;20056;-90
2021/06/02 04:44:14;;;;;;;10.02;4.10;;;14.80;91.40;;;;;;6260621;28;20044;-90
2021/06/02 04:47:16;;;;;;;6.17;4.57;;;15.20;90.40;;;;;;6270637;28;20032;-89
2021/06/02 04:50:27;;;;;;;7.07;4.27;;;15.30;90.20;;;;;;6258239;28;20108;-90
2021/06/02 04:54:05;;;;;;;6.00;4.32;;;15.40;90.30;;;;;;6271084;28;20281;-91
2021/06/02 04:57:08;;;;;;;5.47;4.40;;;15.50;98.50;;;;;;6307274;28;20028;-90
2021/06/02 05:00:30;;;;;;;6.10;4.90;;;15.70;90.00;;;;;;6310523;28;20052;-89
2021/06/02 05:03:50;;;;;;;5.30;4.32;;;15.80;95.50;;;;;;6324850;28;20039;-89
2021/06/02 05:07:18;;;;;;;6.28;4.45;;;15.80;98.30;;;;;;6313729;28;20074;-89
2021/06/02 05:10:53;;;;;;;7.47;4.82;;;16.00;96.60;;;;;;6305661;28;20032;-91
2021/06/02 05:14:22;;;;;;;6.60;4.72;;;16.60;97.30;;;;;;6311799;28;20024;-91
2021/06/02 05:18:00;;;;;;;4.90;4.22;;;17.30;86.60;;;;;;6259041;28;20042;-88
2021/06/02 05:24:59;;;;;;;10.07;4.78;;;17.50;92.20;;;;;;6312267;28;20105;-91
2021/06/02 05:28:16;;;;;;;5.97;4.78;;;17.60;93.00;;;;;;6267024;28;20021;-90
2021/06/02 05:31:28;;;;;;;5.68;4.70;;;17.50;91.60;;;;;;6301466;28;20035;-90
2021/06/02 05:34:44;;;;;;;5.60;5.00;;;17.50;80.10;;;;;;6273784;28;20060;-90
2021/06/02 05:38:30;;;;;;;5.32;3.95;;;18.20;91.80;;;;;;6310375;28;20028;-91
2021/06/02 05:42:00;;;;;;;6.97;5.00;;;19.20;92.10;;;;;;6296660;28;20398;-90
2021/06/02 05:45:22;;;;;;;8.05;4.15;;;19.50;78.30;;;;;;6297381;28;20486;-87
2021/06/02 05:48:41;;;;;;;8.05;4.22;;;19.80;70.80;;;;;;6289945;28;20038;-87
2021/06/02 05:52:01;;;;;;;6.57;4.72;;;20.10;69.60;;;;;;6298020;28;20653;-85
2021/06/02 05:55:39;;;;;;;5.75;5.22;;;20.10;82.20;;;;;;6282881;28;20025;-88
2021/06/02 05:58:54;;;;;;;12.27;4.70;;;20.30;94.50;;;;;;6322212;28;20035;-85
2021/06/02 06:02:15;;;;;;;9.20;4.47;;;20.30;88.80;;;;;;6301881;28;20024;-85
2021/06/02 06:05:37;;;;;;;5.07;4.57;;;20.80;71.60;;;;;;6302343;28;20036;-86
2021/06/02 06:09:08;;;;;;;9.48;4.63;;;21.00;87.60;;;;;;6298549;28;20033;-86
2021/06/02 06:12:50;;;;;;;6.65;4.45;;;21.40;79.80;;;;;;6285660;28;20031;-88
2021/06/02 06:16:09;;;;;;;5.57;4.30;;;22.00;94.10;;;;;;6266537;28;20036;-84
2021/06/02 06:19:25;;;;;;;5.32;4.18;;;22.50;78.60;;;;;;6302412;28;20270;-88
2021/06/02 06:22:53;;;;;;;5.43;4.30;;;23.10;92.00;;;;;;6279500;28;20032;-88
2021/06/02 06:25:58;;;;;;;4.60;3.72;;;23.70;71.80;;;;;;6277392;28;20028;-88
2021/06/02 06:29:12;;;;;;;5.93;4.15;;;23.60;71.50;;;;;;6272854;28;20032;-86
2021/06/02 06:32:12;;;;;;;4.93;4.18;;;24.20;54.50;;;;;;6279767;28;20031;-86
2021/06/02 06:35:14;;;;;;;6.18;4.20;;;25.00;54.20;;;;;;6290892;28;20028;-85
2021/06/02 06:38:19;;;;;;;7.40;4.32;;;24.80;56.50;;;;;;6278224;28;20033;-86
2021/06/02 06:41:22;;;;;;;5.15;3.90;;;25.10;53.60;;;;;;6262857;28;20053;-88
2021/06/02 06:44:22;;;;;;;4.07;3.67;;;25.80;52.40;;;;;;6254857;28;20123;-87
2021/06/02 06:47:23;;;;;;;6.37;3.77;;;;;;;;;;6259366;28;20540;-89
2021/06/02 06:50:24;;;;;;;4.67;3.70;;;26.50;49.80;;;;;;6279353;28;20422;-88
2021/06/02 06:53:24;;;;;;;4.70;3.57;;;26.80;64.20;;;;;;6280686;28;20024;-90
2021/06/02 06:56:26;;;;;;;13.50;3.90;;;26.70;50.80;;;;;;6261360;28;20501;-88
2021/06/02 06:59:27;;;;;;;;;;;27.10;49.40;;;;;;6272946;28;20055;-87
2021/06/02 07:02:28;;;;;;;10.05;4.20;;;;;;;;;;6310518;28;20389;-83
2021/06/02 07:05:30;;;;;;;4.55;3.67;;;27.30;52.90;;;;;;6277403;28;20028;-86
2021/06/02 07:08:30;;;;;;;4.03;3.45;;;27.70;50.20;;;;;;6262726;28;20496;-83
2021/06/02 07:11:43;;;;;;;5.30;4.20;;;27.30;64.10;;;;;;6283786;28;20031;-88
2021/06/02 07:14:44;;;;;;;4.72;4.13;;;27.90;60.60;;;;;;6295014;28;20100;-79
2021/06/02 07:17:48;;;;;;;8.30;4.10;;;27.90;48.10;;;;;;6265341;28;20028;-78
2021/06/02 07:21:11;;;;;;;5.00;3.60;;;28.30;47.10;;;;;;6274051;28;20021;-79
2021/06/02 07:24:12;;;;;;;4.30;3.88;;;30.40;45.50;;;;;;6305891;28;20044;-77
2021/06/02 07:27:14;;;;;;;4.87;4.03;;;28.80;45.40;;;;;;6293575;28;20047;-84
2021/06/02 07:30:15;;;;;;;8.65;4.97;;;29.00;46.60;;;;;;6260818;28;20046;-79
2021/06/02 07:33:16;;;;;;;6.55;4.55;;;29.00;46.20;;;;;;6259187;28;20032;-78
2021/06/02 07:36:16;;;;;;;33.10;11.40;;;29.20;46.30;;;;;;6318917;28;20158;-80
2021/06/02 07:39:17;;;;;;;27.60;10.37;;;29.20;46.50;;;;;;6293214;28;20870;-80
2021/06/02 07:42:18;;;;;;;20.80;8.50;;;29.40;46.20;;;;;;6277331;28;20389;-78
2021/06/02 07:45:18;;;;;;;5.53;4.10;;;29.60;45.70;;;;;;6315432;28;20033;-81
2021/06/02 07:48:19;;;;;;;14.00;6.33;;;30.00;64.40;;;;;;6276592;28;20028;-84
2021/06/02 07:51:19;;;;;;;26.13;10.83;;;29.90;48.40;;;;;;6293254;28;20268;-80
2021/06/02 07:54:20;;;;;;;7.03;5.40;;;30.00;49.60;;;;;;6293605;28;20029;-80
2021/06/02 07:57:21;;;;;;;7.33;4.70;;;30.10;48.90;;;;;;6291840;28;20471;-82
2021/06/02 08:00:21;;;;;;;4.57;4.07;;;30.10;48.10;;;;;;6276111;28;20337;-82
2021/06/02 08:03:22;;;;;;;9.47;4.10;;;30.10;47.50;;;;;;6259224;28;20139;-80
2021/06/02 08:06:23;;;;;;;4.77;3.93;;;30.30;47.30;;;;;;6276004;28;20383;-82
2021/06/02 08:09:23;;;;;;;7.07;3.53;;;30.70;47.80;;;;;;6275486;28;20035;-80
2021/06/02 08:12:24;;;;;;;6.73;4.10;;;30.50;48.20;;;;;;6276039;28;20458;-82
2021/06/02 08:15:26;;;;;;;4.83;4.00;;;30.80;48.10;;;;;;6261664;28;20033;-84
2021/06/02 08:18:26;;;;;;;4.82;3.50;;;30.80;49.30;;;;;;6248994;28;20508;-81
2021/06/02 08:21:27;;;;;;;6.17;3.97;;;31.10;47.70;;;;;;6261794;28;20024;-81
2021/06/02 08:24:28;;;;;;;4.53;3.87;;;31.00;48.20;;;;;;6280208;28;20047;-84
2021/06/02 08:27:28;;;;;;;5.65;3.70;;;31.00;47.90;;;;;;6299597;28;20031;-82
2021/06/02 08:30:29;;;;;;;5.47;3.33;;;31.30;47.10;;;;;;6288132;28;20039;-81
2021/06/02 08:33:29;;;;;;;5.13;3.70;;;31.20;45.90;;;;;;6292701;28;20032;-81
2021/06/02 08:36:30;;;;;;;6.77;3.37;;;31.30;46.40;;;;;;6275549;28;20090;-77
2021/06/02 08:39:33;;;;;;;8.80;3.70;;;31.00;46.70;;;;;;6275055;28;20139;-79
2021/06/02 08:42:33;;;;;;;6.60;3.65;;;31.30;46.40;;;;;;6259029;28;20090;-80
2021/06/02 08:45:34;;;;;;;4.57;3.37;;;31.50;56.80;;;;;;6287480;28;20428;-79
2021/06/02 08:48:36;;;;;;;5.90;3.57;;;31.50;56.10;;;;;;6291481;28;20063;-79
2021/06/02 08:51:37;;;;;;;6.13;3.85;;;31.20;46.10;;;;;;6281482;28;20538;-79
2021/06/02 08:54:37;;;;;;;4.77;3.73;;;31.20;47.50;;;;;;6299513;28;20028;-79
2021/06/02 08:57:39;;;;;;;6.78;3.60;;;31.20;47.60;;;;;;6302429;28;20037;-80
2021/06/02 09:00:39;;;;;;;8.18;4.10;;;31.20;46.90;;;;;;6258229;28;20470;-79
2021/06/02 09:03:40;;;;;;;9.27;4.07;;;31.30;48.10;;;;;;6274404;28;20059;-80
2021/06/02 09:06:45;;;;;;;4.63;3.90;;;31.50;47.40;;;;;;6294037;28;20028;-80
2021/06/02 09:09:46;;;;;;;5.38;4.05;;;31.80;47.10;;;;;;6274697;28;20032;-79
2021/06/02 09:12:58;;;;;;;5.13;3.70;;;32.20;46.10;;;;;;6274556;28;20044;-81
2021/06/02 09:15:59;;;;;;;4.13;3.53;;;32.30;45.10;;;;;;6259588;28;20043;-80
2021/06/02 09:18:59;;;;;;;4.20;3.50;;;32.20;47.00;;;;;;6258440;28;20025;-81
2021/06/02 09:22:00;;;;;;;5.25;3.97;;;32.30;46.30;;;;;;6291886;28;20032;-81
2021/06/02 09:25:02;;;;;;;7.32;3.78;;;32.40;46.60;;;;;;6274177;28;20086;-80
2021/06/02 09:28:03;;;;;;;7.57;3.35;;;32.40;46.00;;;;;;6291227;28;20446;-80
2021/06/02 09:31:22;;;;;;;3.80;3.38;;;32.60;46.90;;;;;;6274091;28;20043;-81
2021/06/02 09:34:24;;;;;;;4.10;3.50;;;33.00;45.50;;;;;;6293136;28;20085;-81
2021/06/02 09:37:25;;;;;;;6.40;3.70;;;32.90;44.90;;;;;;6253548;28;20029;-81
2021/06/02 09:40:32;;;;;;;4.25;3.20;;;33.00;45.30;;;;;;6274306;28;20481;-80
2021/06/02 09:43:33;;;;;;;7.05;3.75;;;33.00;45.20;;;;;;6295004;28;20119;-81
2021/06/02 09:46:33;;;;;;;;;;;33.00;44.90;;;;;;6279896;28;20031;-80
2021/06/02 09:49:51;;;;;;;5.07;3.07;;;33.10;43.70;;;;;;6279437;28;20341;-80
2021/06/02 09:52:52;;;;;;;4.03;3.15;;;33.20;45.00;;;;;;6295740;28;20121;-81
2021/06/02 09:55:53;;;;;;;4.43;3.58;;;33.20;45.50;;;;;;6293901;28;20059;-80
2021/06/02 09:58:57;;;;;;;3.80;3.40;;;33.10;46.40;;;;;;6320422;28;20113;-81
2021/06/02 10:01:59;;;;;;;5.85;3.45;;;32.20;44.20;;;;;;6321867;28;20343;-81
2021/06/02 10:04:59;;;;;;;4.13;3.72;;;33.50;44.20;;;;;;6320086;28;20396;-81
2021/06/02 10:08:00;;;;;;;6.07;3.55;;;33.70;44.90;;;;;;6321502;28;20028;-80
2021/06/02 10:11:11;;;;;;;4.47;3.13;;;33.60;44.80;;;;;;6311263;28;20429;-81
2021/06/02 10:14:12;;;;;;;;;;;33.80;45.30;;;;;;6279089;28;20059;-81
2021/06/02 10:17:37;;;;;;;3.97;3.50;;;33.90;44.20;;;;;;6296091;28;20255;-80
2021/06/02 10:20:38;;;;;;;4.72;3.58;;;33.70;44.30;;;;;;6277566;28;20475;-81
2021/06/02 10:23:40;;;;;;;4.72;3.75;;;33.60;44.40;;;;;;6254370;28;20047;-81
2021/06/02 10:26:41;;;;;;;4.13;3.00;;;33.20;45.00;;;;;;6319904;28;20458;-80
2021/06/02 10:29:41;;;;;;;5.35;3.38;;;33.20;44.20;;;;;;6302754;28;20098;-80
2021/06/02 10:32:42;;;;;;;5.28;3.40;;;33.40;46.10;;;;;;6286184;28;20036;-80
2021/06/02 10:35:43;;;;;;;5.10;3.60;;;33.30;45.50;;;;;;6298416;28;20033;-80
2021/06/02 10:38:51;;;;;;;5.40;3.70;;;33.30;45.40;;;;;;6292891;28;20042;-81
2021/06/02 10:41:54;;;;;;;4.68;3.47;;;32.80;45.50;;;;;;6303580;28;20131;-81
2021/06/02 10:45:02;;;;;;;4.68;3.20;;;32.30;44.80;;;;;;6283903;28;20032;-80
2021/06/02 10:48:03;;;;;;;4.75;3.47;;;32.00;45.80;;;;;;6277742;28;20032;-82
2021/06/02 10:51:04;;;;;;;5.90;3.58;;;32.50;49.00;;;;;;6271106;28;20028;-78
2021/06/02 10:54:18;;;;;;;4.68;3.70;;;31.50;48.70;;;;;;6274728;28;20070;-81
2021/06/02 10:57:19;;;;;;;3.70;3.30;;;31.80;47.60;;;;;;6310041;28;20085;-78
2021/06/02 11:00:20;;;;;;;5.22;3.80;;;31.90;47.30;;;;;;6306022;28;20032;-86
2021/06/02 11:03:27;;;;;;;5.07;3.60;;;31.90;46.90;;;;;;6255348;28;20045;-81
2021/06/02 11:06:32;;;;;;;9.85;3.50;;;31.90;47.20;;;;;;6277535;28;21296;-81
2021/06/02 11:09:33;;;;;;;6.38;3.70;;;;;;;;;;6254738;28;20078;-81
2021/06/02 11:12:49;;;;;;;4.60;3.90;;;32.30;52.30;;;;;;6290952;28;20427;-82
2021/06/02 11:15:51;;;;;;;4.78;3.55;;;32.00;48.00;;;;;;6300051;28;20028;-83
2021/06/02 11:19:12;;;;;;;3.80;3.40;;;32.20;48.80;;;;;;6307818;28;20051;-82
2021/06/02 11:22:20;;;;;;;3.45;3.13;;;32.10;48.50;;;;;;6269865;28;20600;-81
2021/06/02 11:25:21;;;;;;;5.88;3.70;;;32.10;47.50;;;;;;6271791;28;20051;-81
2021/06/02 11:28:45;;;;;;;6.00;3.60;;;32.00;47.80;;;;;;6280430;28;20077;-80
2021/06/02 11:31:45;;;;;;;3.60;3.30;;;31.90;48.40;;;;;;6250539;28;20425;-79
2021/06/02 11:34:47;;;;;;;6.63;3.70;;;31.90;47.50;;;;;;6265925;28;20040;-80
2021/06/02 11:37:48;;;;;;;4.43;3.30;;;31.60;48.00;;;;;;6255224;28;20688;-83
2021/06/02 11:40:49;;;;;;;4.45;3.72;;;31.70;48.20;;;;;;6282105;28;20048;-81
2021/06/02 11:43:49;;;;;;;7.50;3.83;;;31.60;48.40;;;;;;6267756;28;20494;-83
2021/06/02 11:46:50;;;;;;;4.07;3.30;;;31.60;49.10;;;;;;6255110;28;20079;-80
2021/06/02 11:49:51;;;;;;;5.10;3.58;;;31.60;47.80;;;;;;6294815;28;20036;-83
2021/06/02 11:52:56;;;;;;;4.63;3.17;;;31.60;50.20;;;;;;6258594;28;20031;-82
2021/06/02 11:55:58;;;;;;;3.55;3.10;;;31.60;46.50;;;;;;6270368;28;20473;-82
2021/06/02 11:59:04;;;;;;;7.28;3.45;;;31.50;48.50;;;;;;6278949;28;20025;-83
2021/06/02 12:02:14;;;;;;;4.60;3.85;;;31.30;44.60;;;;;;6301497;28;20051;-79
2021/06/02 12:05:23;;;;;;;4.30;3.63;;;31.30;47.40;;;;;;6252548;28;20040;-78
2021/06/02 12:08:24;;;;;;;4.90;3.35;;;31.30;47.60;;;;;;6281705;28;20052;-81
2021/06/02 12:11:24;;;;;;;7.20;4.27;;;31.40;47.30;;;;;;6303143;28;20024;-81
2021/06/02 12:14:25;;;;;;;5.00;3.50;;;31.20;47.90;;;;;;6290144;28;20907;-79
2021/06/02 12:17:30;;;;;;;3.90;3.50;;;31.10;48.00;;;;;;6258859;28;20112;-80
2021/06/02 12:20:32;;;;;;;3.95;3.55;;;31.10;49.60;;;;;;6260676;28;20560;-80
2021/06/02 12:23:33;;;;;;;5.20;3.55;;;30.90;48.50;;;;;;6268630;28;20035;-84
2021/06/02 12:26:39;;;;;;;4.63;3.40;;;30.60;48.30;;;;;;6295202;28;20040;-79
2021/06/02 12:29:40;;;;;;;4.57;3.70;;;30.50;49.90;;;;;;6257508;28;20081;-81
2021/06/02 12:33:19;;;;;;;3.77;3.23;;;30.50;50.40;;;;;;6280941;28;20040;-79
2021/06/02 12:36:20;;;;;;;7.72;3.92;;;30.70;49.30;;;;;;6238099;28;20156;-84
2021/06/02 12:39:22;;;;;;;5.57;3.70;;;30.60;49.50;;;;;;6206937;28;20490;-81
2021/06/02 12:42:22;;;;;;;4.65;4.18;;;30.00;48.00;;;;;;6223648;28;20610;-81
2021/06/02 12:45:25;;;;;;;4.20;3.80;;;29.60;47.80;;;;;;6223700;28;20175;-83
2021/06/02 12:48:33;;;;;;;4.97;3.80;;;29.70;50.60;;;;;;6205475;28;20045;-80
2021/06/02 12:51:34;;;;;;;5.78;3.78;;;30.00;49.70;;;;;;6224165;28;20040;-79
2021/06/02 12:54:37;;;;;;;5.80;3.53;;;30.10;50.50;;;;;;6205567;28;20037;-81
2021/06/02 12:57:37;;;;;;;6.75;4.07;;;30.30;49.00;;;;;;6211730;28;20404;-80
2021/06/02 13:00:42;;;;;;;4.93;3.70;;;29.90;58.40;;;;;;6217247;28;20128;-79
2021/06/02 13:03:53;;;;;;;4.55;3.30;;;29.90;45.80;;;;;;6223169;28;20041;-81
2021/06/02 13:06:55;;;;;;;5.43;3.42;;;29.00;49.30;;;;;;6260842;28;20089;-80
2021/06/02 13:09:58;;;;;;;;;;;28.20;49.10;;;;;;6312125;28;20130;-91
2021/06/02 13:12:59;;;;;;;5.00;3.60;;;27.20;53.00;;;;;;6275303;28;19957;-83
2021/06/02 13:16:00;;;;;;;;;;;26.60;52.90;;;;;;6264797;28;20478;-80
2021/06/02 13:19:01;;;;;;;5.15;3.55;;;25.80;55.70;;;;;;6302817;28;20023;-80
2021/06/02 13:22:02;;;;;;;4.80;3.63;;;25.70;56.50;;;;;;6274173;28;20032;-81
2021/06/02 13:25:03;;;;;;;4.20;3.50;;;25.60;57.60;;;;;;6279717;28;20139;-79
2021/06/02 13:28:06;;;;;;;4.65;3.83;;;25.30;58.20;;;;;;6281988;28;20028;-78
2021/06/02 13:31:06;;;;;;;7.00;4.07;;;25.30;68.40;;;;;;6298223;28;20135;-79
2021/06/02 13:34:07;;;;;;;6.20;4.27;;;24.80;88.30;;;;;;6268224;28;20466;-74
2021/06/02 13:37:21;;;;;;;5.67;4.43;;;24.70;73.50;;;;;;6292690;28;20032;-74
2021/06/02 13:40:23;;;;;;;10.77;4.43;;;24.10;77.50;;;;;;6297817;28;20054;-74
2021/06/02 13:43:24;;;;;;;5.32;3.80;;;23.90;68.80;;;;;;6257308;28;20055;-74
2021/06/02 13:46:25;;;;;;;9.83;3.90;;;23.80;69.10;;;;;;6316818;28;20071;-74
2021/06/02 13:49:36;;;;;;;6.87;4.30;;;23.80;69.10;;;;;;6312595;28;20028;-76
2021/06/02 13:52:38;;;;;;;8.90;4.40;;;23.70;70.10;;;;;;6268098;28;20089;-74
2021/06/02 13:55:38;;;;;;;11.40;5.05;;;23.90;71.20;;;;;;6298320;28;20035;-76
2021/06/02 13:58:39;;;;;;;6.13;3.93;;;24.40;70.80;;;;;;6307110;28;20103;-77
2021/06/02 14:01:41;;;;;;;6.93;3.87;;;24.40;69.20;;;;;;6281924;28;20432;-77
2021/06/02 14:04:42;;;;;;;6.65;4.75;;;24.60;68.00;;;;;;6286128;28;20036;-78
2021/06/02 14:07:46;;;;;;;5.30;3.95;;;24.50;72.60;;;;;;6283276;28;20081;-78
2021/06/02 14:10:46;;;;;;;5.25;3.75;;;24.50;70.00;;;;;;6282276;28;20064;-81
2021/06/02 14:13:47;;;;;;;6.43;3.70;;;24.50;66.00;;;;;;6298739;28;20384;-79
2021/06/02 14:16:48;;;;;;;5.80;4.13;;;24.70;66.80;;;;;;6259146;28;20024;-79
2021/06/02 14:19:49;;;;;;;6.00;3.60;;;25.20;67.80;;;;;;6245791;28;20076;-80
2021/06/02 14:22:49;;;;;;;6.93;3.40;;;25.00;67.50;;;;;;6292324;28;20038;-83
2021/06/02 14:25:50;;;;;;;5.73;3.10;;;26.00;59.90;;;;;;6244243;28;20099;-78
2021/06/02 14:28:50;;;;;;;3.30;3.00;;;26.00;59.70;;;;;;6279623;28;20029;-83
2021/06/02 14:31:51;;;;;;;7.13;3.47;;;26.10;55.80;;;;;;6268241;28;20103;-78
2021/06/02 14:34:51;;;;;;;4.10;3.50;;;26.30;56.60;;;;;;6284295;28;20048;-79
2021/06/02 14:37:52;;;;;;;3.57;3.20;;;26.20;55.30;;;;;;6283018;28;20063;-80
2021/06/02 14:40:53;;;;;;;10.17;4.17;;;26.20;56.60;;;;;;6286014;28;20111;-79
2021/06/02 14:43:53;;;;;;;4.20;3.17;;;26.40;57.20;;;;;;6267090;28;20036;-78
2021/06/02 14:46:54;;;;;;;7.33;4.07;;;26.60;56.90;;;;;;6300562;28;20016;-78
2021/06/02 14:49:56;;;;;;;3.93;3.50;;;26.90;53.80;;;;;;6267021;28;20020;-78
2021/06/02 14:52:57;;;;;;;5.50;3.55;;;;;;;;;;6294649;28;20036;-76
2021/06/02 14:55:58;;;;;;;9.20;3.93;;;27.20;53.20;;;;;;6295635;28;20055;-78
2021/06/02 14:58:59;;;;;;;3.90;3.50;;;27.20;54.40;;;;;;6280098;28;20259;-78
2021/06/02 15:01:59;;;;;;;4.50;3.20;;;27.20;53.20;;;;;;6279238;28;20036;-76
2021/06/02 15:05:00;;;;;;;6.37;3.73;;;27.40;53.10;;;;;;6295569;28;20094;-75
2021/06/02 15:08:01;;;;;;;5.87;3.97;;;27.50;50.80;;;;;;6299381;28;20085;-78
2021/06/02 15:11:02;;;;;;;4.75;3.20;;;27.40;49.20;;;;;;6319824;28;20024;-78
2021/06/02 15:14:04;;;;;;;7.57;3.97;;;27.30;49.70;;;;;;6319065;28;20128;-79
2021/06/02 15:17:04;;;;;;;5.45;3.25;;;27.40;63.00;;;;;;6283483;28;20688;-83
2021/06/02 15:20:05;;;;;;;4.80;3.17;;;27.40;48.10;;;;;;6294225;28;20042;-81
2021/06/02 15:23:06;;;;;;;8.25;4.13;;;27.60;47.70;;;;;;6291800;28;20051;-83
2021/06/02 15:26:06;;;;;;;4.70;3.47;;;27.70;48.10;;;;;;6282511;28;20040;-83
2021/06/02 15:29:08;;;;;;;4.80;3.20;;;27.60;48.10;;;;;;6284636;28;20028;-80
2021/06/02 15:32:08;;;;;;;6.45;4.00;;;27.80;48.70;;;;;;6311039;28;20114;-80
2021/06/02 15:35:09;;;;;;;4.70;3.17;;;27.90;63.00;;;;;;6294719;28;20043;-81
2021/06/02 15:38:11;;;;;;;5.07;3.50;;;27.90;48.70;;;;;;6316169;28;20438;-84
2021/06/02 15:41:12;;;;;;;4.00;3.60;;;;;;;;;;6298554;28;20051;-82
2021/06/02 15:44:13;;;;;;;8.27;3.40;;;28.10;49.40;;;;;;6300223;28;20037;-81
2021/06/02 15:47:13;;;;;;;5.13;3.60;;;28.10;48.80;;;;;;6276476;28;20390;-80
2021/06/02 15:50:15;;;;;;;5.47;3.60;;;28.10;48.50;;;;;;6259779;28;20028;-80
2021/06/02 15:53:23;;;;;;;6.53;3.20;;;28.20;51.10;;;;;;6293155;28;20028;-81
2021/06/02 15:56:23;;;;;;;4.70;3.10;;;28.20;50.50;;;;;;6268123;28;20032;-82
2021/06/02 15:59:25;;;;;;;4.73;3.07;;;28.20;59.80;;;;;;6300581;28;20576;-82
2021/06/02 16:02:26;;;;;;;3.63;3.33;;;28.20;60.20;;;;;;6283798;28;20032;-83
2021/06/02 16:05:26;;;;;;;3.80;3.13;;;28.30;60.90;;;;;;6310585;28;20445;-80
2021/06/02 16:08:27;;;;;;;3.53;2.83;;;28.00;61.20;;;;;;6299488;28;20612;-82
2021/06/02 16:11:27;;;;;;;5.27;3.30;;;28.00;61.30;;;;;;6318852;28;20031;-82
2021/06/02 16:14:28;;;;;;;3.93;3.30;;;28.20;62.20;;;;;;6300265;28;20516;-83
2021/06/02 16:17:30;;;;;;;3.60;3.13;;;27.80;60.50;;;;;;6286218;28;20527;-80
2021/06/02 16:20:31;;;;;;;5.88;3.53;;;27.70;49.10;;;;;;6292645;28;20378;-83
2021/06/02 16:23:31;;;;;;;3.97;3.50;;;27.70;51.00;;;;;;6294925;28;20052;-80